Latest Weather Observations for Fawkner Beacon

IDV60801

Issued at 2:02 pm EDT Sunday 29 March 2015 (issued every 30 minutes, with the page automatically refreshed every 10 minutes)

About weather observations | Map of weather stations | Latest weather observations for VIC | Other Formats
Station Details ID: 086376 Name: FAWKNER BEACON Lat: -37.91 Lon: 144.93 Height: 17.0 m
Data from the previous 72 hours. | See also: Recent months for locations in Victoria
Date/Time
EDT
Temp
°C
App
Temp
°C
Dew
Point
Rel
Hum
%
Delta-T
°C
Wind Press
QNH
hPa
Press
MSL
hPa
Rain
since 9 am
mm
Dir
 
Spd
km/h
Gust
km/h
Spd
kts
Gust
kts
29/02:00pm - - - - - S 17 20 9 11 - - -
29/01:30pm - - - - - SSE 19 22 10 12 - - -
29/01:00pm - - - - - SSE 15 17 8 9 - - -
29/12:30pm - - - - - SSE 11 13 6 7 - - -
29/12:00pm - - - - - N 2 7 1 4 - - -
29/11:30am - - - - - N 9 11 5 6 - - -
29/11:00am - - - - - N 13 15 7 8 - - -
29/10:30am - - - - - N 13 15 7 8 - - -
29/10:00am - - - - - N 17 22 9 12 - - -
29/09:30am - - - - - N 15 17 8 9 - - -
29/09:00am - - - - - N 17 20 9 11 - - -
29/08:30am - - - - - N 17 20 9 11 - - -
29/08:00am - - - - - N 15 17 8 9 - - -
29/07:30am - - - - - N 15 17 8 9 - - -
29/07:00am - - - - - N 11 13 6 7 - - -
29/06:30am - - - - - N 13 17 7 9 - - -
29/06:00am - - - - - N 13 15 7 8 - - -
29/05:30am - - - - - NNW 11 13 6 7 - - -
29/05:00am - - - - - NNW 9 13 5 7 - - -
29/04:30am - - - - - NNW 11 15 6 8 - - -
29/04:00am - - - - - NNW 11 13 6 7 - - -
29/03:30am - - - - - NNW 13 15 7 8 - - -
29/03:00am - - - - - NW 9 15 5 8 - - -
29/02:30am - - - - - N 13 17 7 9 - - -
29/02:00am - - - - - NE 13 15 7 8 - - -
29/01:30am - - - - - ENE 11 15 6 8 - - -
29/01:00am - - - - - ENE 13 15 7 8 - - -
29/12:30am - - - - - ENE 13 17 7 9 - - -
29/12:00am - - - - - E 11 13 6 7 - - -
 
Date/Time
EDT
Temp
°C
App
Temp
°C
Dew
Point
Rel
Hum
%
Delta-T
°C
Wind Press
QNH
hPa
Press
MSL
hPa
Rain
since 9 am
mm
Dir
 
Spd
km/h
Gust
km/h
Spd
kts
Gust
kts
28/11:30pm - - - - - ESE 11 15 6 8 - - -
28/11:00pm - - - - - ESE 11 13 6 7 - - -
28/10:30pm - - - - - ESE 11 15 6 8 - - -
28/10:00pm - - - - - ESE 13 15 7 8 - - -
28/09:30pm - - - - - SE 11 15 6 8 - - -
28/09:00pm - - - - - SSE 13 15 7 8 - - -
28/08:30pm - - - - - SSE 13 15 7 8 - - -
28/08:00pm - - - - - SSE 15 17 8 9 - - -
28/07:30pm - - - - - SE 17 22 9 12 - - -
28/07:00pm - - - - - SE 17 20 9 11 - - -
28/06:30pm - - - - - SE 15 17 8 9 - - -
28/06:00pm - - - - - SE 13 15 7 8 - - -
28/05:30pm - - - - - SSE 11 15 6 8 - - -
28/05:00pm - - - - - SSE 11 13 6 7 - - -
28/04:30pm - - - - - ESE 7 9 4 5 - - -
28/04:00pm - - - - - ESE 7 11 4 6 - - -
28/03:30pm - - - - - ESE 6 9 3 5 - - -
28/03:00pm - - - - - ESE 6 7 3 4 - - -
28/02:30pm - - - - - ESE 7 9 4 5 - - -
28/02:00pm - - - - - ESE 7 11 4 6 - - -
28/01:30pm - - - - - S 6 7 3 4 - - -
28/01:00pm - - - - - S 7 11 4 6 - - -
28/12:30pm - - - - - SW 11 15 6 8 - - -
28/12:00pm - - - - - SW 13 17 7 9 - - -
28/11:30am - - - - - SW 15 20 8 11 - - -
28/11:00am - - - - - SW 15 20 8 11 - - -
28/10:30am - - - - - WSW 17 22 9 12 - - -
28/10:00am - - - - - WSW 15 20 8 11 - - -
28/09:30am - - - - - SW 15 20 8 11 - - -
28/09:00am - - - - - WSW 19 22 10 12 - - -
28/08:30am - - - - - SW 17 22 9 12 - - -
28/08:00am - - - - - SSW 17 28 9 15 - - -
28/07:30am - - - - - SSW 20 26 11 14 - - -
28/07:00am - - - - - SW 24 30 13 16 - - -
28/06:30am - - - - - SW 26 32 14 17 - - -
28/06:00am - - - - - SW 26 30 14 16 - - -
28/05:30am - - - - - SW 28 30 15 16 - - -
28/05:00am - - - - - SW 28 33 15 18 - - -
28/04:30am - - - - - SW 30 39 16 21 - - -
28/04:00am - - - - - SW 28 33 15 18 - - -
28/03:30am - - - - - SW 24 28 13 15 - - -
28/03:00am - - - - - SW 30 35 16 19 - - -
28/02:30am - - - - - SW 32 39 17 21 - - -
28/02:00am - - - - - SW 30 33 16 18 - - -
28/01:30am - - - - - SW 30 33 16 18 - - -
28/01:00am - - - - - WSW 30 35 16 19 - - -
28/12:30am - - - - - SW 32 35 17 19 - - -
28/12:00am - - - - - SW 28 33 15 18 - - -
 
Date/Time
EDT
Temp
°C
App
Temp
°C
Dew
Point
Rel
Hum
%
Delta-T
°C
Wind Press
QNH
hPa
Press
MSL
hPa
Rain
since 9 am
mm
Dir
 
Spd
km/h
Gust
km/h
Spd
kts
Gust
kts
27/11:30pm - - - - - SSW 24 32 13 17 - - -
27/11:00pm - - - - - SW 28 33 15 18 - - -
27/10:30pm - - - - - SSW 24 30 13 16 - - -
27/10:00pm - - - - - S 30 39 16 21 - - -
27/09:30pm - - - - - SSW 26 33 14 18 - - -
27/09:00pm - - - - - SSW 32 41 17 22 - - -
27/08:30pm - - - - - S 30 39 16 21 - - -
27/08:00pm - - - - - SSW 28 32 15 17 - - -
27/07:30pm - - - - - SSW 32 39 17 21 - - -
27/07:00pm - - - - - SSW 32 39 17 21 - - -
27/06:30pm - - - - - S 33 43 18 23 - - -
27/06:00pm - - - - - SSW 26 32 14 17 - - -
27/05:30pm - - - - - SW 26 32 14 17 - - -
27/05:00pm - - - - - SW 22 26 12 14 - - -
27/04:30pm - - - - - SW 26 35 14 19 - - -
27/04:00pm - - - - - SW 30 33 16 18 - - -
27/03:30pm - - - - - SW 30 41 16 22 - - -
27/03:00pm - - - - - SW 33 43 18 23 - - -
27/02:30pm - - - - - SW 39 44 21 24 - - -
27/02:00pm - - - - - SW 32 43 17 23 - - -
27/01:30pm - - - - - SW 28 46 15 25 - - -
27/01:00pm - - - - - SSW 24 30 13 16 - - -
27/12:30pm - - - - - SSW 28 32 15 17 - - -
27/12:00pm - - - - - SW 41 50 22 27 - - -
27/11:30am - - - - - SW 39 48 21 26 - - -
27/11:00am - - - - - WSW 41 50 22 27 - - -
27/10:30am - - - - - WSW 43 50 23 27 - - -
27/10:00am - - - - - WSW 43 52 23 28 - - -
27/09:30am - - - - - WSW 43 50 23 27 - - -
27/09:00am - - - - - WSW 44 52 24 28 - - -
27/08:30am - - - - - WSW 44 50 24 27 - - -
27/08:00am - - - - - WSW 48 59 26 32 - - -
27/07:30am - - - - - WSW 48 59 26 32 - - -
27/07:00am - - - - - WSW 50 63 27 34 - - -
27/06:30am - - - - - WSW 48 61 26 33 - - -
27/06:00am - - - - - WSW 46 57 25 31 - - -
27/05:30am - - - - - WSW 43 57 23 31 - - -
27/05:00am - - - - - WSW 44 54 24 29 - - -
27/04:30am - - - - - WSW 46 54 25 29 - - -
27/04:00am - - - - - WSW 46 59 25 32 - - -
27/03:30am - - - - - WSW 48 61 26 33 - - -
27/03:00am - - - - - WSW 48 61 26 33 - - -
27/02:30am - - - - - WSW 48 59 26 32 - - -
27/02:00am - - - - - W 50 63 27 34 - - -
27/01:30am - - - - - W 41 52 22 28 - - -
27/01:00am - - - - - W 43 52 23 28 - - -
27/12:30am - - - - - W 43 57 23 31 - - -
27/12:00am - - - - - W 43 59 23 32 - - -
 
Date/Time
EDT
Temp
°C
App
Temp
°C
Dew
Point
Rel
Hum
%
Delta-T
°C
Wind Press
QNH
hPa
Press
MSL
hPa
Rain
since 9 am
mm
Dir
 
Spd
km/h
Gust
km/h
Spd
kts
Gust
kts
26/11:52pm - - - - - W 41 59 22 32 - - -
26/11:30pm - - - - - W 41 50 22 27 - - -
26/11:00pm - - - - - W 44 52 24 28 - - -
26/10:30pm - - - - - W 46 57 25 31 - - -
26/10:00pm - - - - - W 44 52 24 28 - - -
26/09:30pm - - - - - W 44 52 24 28 - - -
26/09:00pm - - - - - WNW 44 52 24 28 - - -
26/08:30pm - - - - - W 44 57 24 31 - - -
26/08:23pm - - - - - W 48 67 26 36 - - -
26/08:00pm - - - - - WNW 50 61 27 33 - - -
26/07:30pm - - - - - WNW 54 67 29 36 - - -
26/07:00pm - - - - - WNW 54 70 29 38 - - -
26/06:30pm - - - - - WNW 56 67 30 36 - - -
26/06:03pm - - - - - W 57 78 31 42 - - -
26/06:00pm - - - - - W 57 70 31 38 - - -
26/05:31pm - - - - - WNW 59 76 32 41 - - -
26/05:30pm - - - - - WNW 56 70 30 38 - - -
26/05:00pm - - - - - W 50 61 27 33 - - -
26/04:39pm - - - - - W 50 70 27 38 - - -
26/04:30pm - - - - - W 44 52 24 28 - - -
26/04:00pm - - - - - WNW 50 67 27 36 - - -
26/03:35pm - - - - - WNW 43 63 23 34 - - -
26/03:30pm - - - - - WNW 46 54 25 29 - - -
26/03:00pm - - - - - WNW 48 57 26 31 - - -
26/02:30pm - - - - - WNW 43 54 23 29 - - -

Other Formats:

Comma delimited format used in spreadsheet applications
http://www.bom.gov.au/fwo/IDV60801/IDV60801.95872.axf

JavaScript Object Notation format (JSON) in row-major order
http://www.bom.gov.au/fwo/IDV60801/IDV60801.95872.json